Time;durP1;ratioP1;P1;durP2;ratioP2;P2;SDS_P1;SDS_P2;PMS_P1;PMS_P2;Temp;Humidity;BMP_temperature;BMP_pressure;BME280_temperature;BME280_humidity;BME280_pressure;Samples;Min_cycle;Max_cycle;Signal;HPM_P1;HPM_P2
2022/03/25 00:01:15;;;;;;;28.48;13.77;;;;;;;3.90;68.58;99735.63;5025357;28;20029;-70
2022/03/25 00:03:40;;;;;;;22.48;12.60;;;;;;;3.80;69.71;99713.34;5025617;28;20018;-69
2022/03/25 00:06:06;;;;;;;31.10;13.43;;;;;;;3.62;70.27;99696.25;5022942;28;20025;-69
2022/03/25 00:08:32;;;;;;;28.67;14.23;;;;;;;3.84;70.86;99730.81;5023609;28;20025;-70
2022/03/25 00:10:57;;;;;;;28.80;13.30;;;;;;;3.78;70.43;99727.84;5026419;28;20096;-70
2022/03/25 00:13:23;;;;;;;24.00;13.30;;;;;;;3.67;71.50;99712.75;5026352;28;20025;-70
2022/03/25 00:15:48;;;;;;;30.48;14.75;;;;;;;3.52;71.46;99709.59;5023694;28;20056;-69
2022/03/25 00:18:14;;;;;;;31.73;15.05;;;;;;;3.40;71.69;99705.31;5027381;28;20112;-70
2022/03/25 00:20:40;;;;;;;31.20;14.43;;;;;;;3.52;72.18;99722.97;5026102;28;20022;-70
2022/03/25 00:23:05;;;;;;;28.88;14.93;;;;;;;3.33;71.75;99688.09;5028535;28;20025;-69
2022/03/25 00:25:30;;;;;;;29.25;14.75;;;;;;;3.44;71.25;99696.06;5024682;28;20207;-70
2022/03/25 00:27:56;;;;;;;33.05;14.88;;;;;;;3.59;70.73;99720.59;5025382;28;20029;-70
2022/03/25 00:30:21;;;;;;;26.98;14.02;;;;;;;3.42;70.16;99700.69;5024568;28;20483;-69
2022/03/25 00:32:47;;;;;;;30.83;13.70;;;;;;;3.38;70.77;99720.66;5027988;28;20025;-69
2022/03/25 00:35:12;;;;;;;28.38;14.10;;;;;;;3.22;71.62;99697.09;5028033;28;20056;-70
2022/03/25 00:37:38;;;;;;;31.33;14.65;;;;;;;3.40;70.78;99724.03;5024287;28;20495;-69
2022/03/25 00:40:05;;;;;;;29.08;14.20;;;;;;;3.23;70.41;99723.69;5026679;28;20034;-70
2022/03/25 00:42:30;;;;;;;29.00;14.30;;;;;;;3.17;70.73;99710.00;5028253;28;20109;-69
2022/03/25 00:44:57;;;;;;;31.63;14.27;;;;;;;3.18;69.89;99723.25;5028450;28;20136;-70
2022/03/25 00:47:23;;;;;;;25.00;14.02;;;;;;;3.20;70.64;99725.81;5023483;28;20068;-70
2022/03/25 00:49:50;;;;;;;29.25;15.07;;;;;;;2.88;70.34;99683.13;5020751;28;20036;-70
2022/03/25 00:52:16;;;;;;;30.55;14.32;;;;;;;2.80;70.93;99675.78;5023114;28;20100;-70
2022/03/25 00:54:41;;;;;;;28.17;13.93;;;;;;;3.04;71.41;99713.75;5025366;28;20026;-70
2022/03/25 00:57:06;;;;;;;29.58;13.98;;;;;;;3.06;72.54;99713.63;5021606;28;20402;-69
2022/03/25 00:59:31;;;;;;;28.85;14.10;;;;;;;2.88;73.06;99673.28;5017493;28;20037;-70
2022/03/25 01:01:57;;;;;;;26.63;14.07;;;;;;;2.82;72.75;99663.97;5019804;28;20033;-70
2022/03/25 01:04:22;;;;;;;28.60;14.10;;;;;;;3.04;72.44;99696.88;5021703;28;20029;-70
2022/03/25 01:06:48;;;;;;;27.90;13.32;;;;;;;2.97;73.01;99680.50;5026420;28;20037;-70
2022/03/25 01:09:13;;;;;;;29.38;14.32;;;;;;;2.98;72.62;99705.41;5022954;28;20048;-70
2022/03/25 01:11:39;;;;;;;26.67;14.38;;;;;;;2.87;72.86;99706.34;5025427;28;20032;-70
2022/03/25 01:14:04;;;;;;;33.00;14.18;;;;;;;2.65;73.24;99677.97;5026490;28;20037;-69
2022/03/25 01:16:30;;;;;;;28.30;13.10;;;;;;;2.77;72.23;99716.13;5023851;28;20033;-70
2022/03/25 01:18:55;;;;;;;25.17;14.10;;;;;;;2.65;71.98;99688.66;5012787;28;20029;-69
2022/03/25 01:21:20;;;;;;;31.90;13.82;;;;;;;2.69;72.82;99714.09;5019492;28;20116;-69
2022/03/25 01:23:48;;;;;;;29.33;14.57;;;;;;;2.53;73.12;99695.88;5021793;28;20038;-70
2022/03/25 01:26:13;;;;;;;23.45;12.85;;;;;;;2.35;73.40;99679.56;5041654;28;20491;-69
2022/03/25 01:28:39;;;;;;;24.35;12.27;;;;;;;2.66;72.97;99711.69;5019523;28;20034;-69
2022/03/25 01:31:06;;;;;;;29.27;13.05;;;;;;;2.67;73.42;99708.03;5020703;28;20056;-70
2022/03/25 01:33:31;;;;;;;31.05;13.93;;;;;;;3.01;72.76;99713.16;5023242;28;20065;-69
2022/03/25 01:35:57;;;;;;;29.13;13.50;;;;;;;2.97;72.51;99675.16;5027878;28;20060;-70
2022/03/25 01:38:25;;;;;;;30.40;13.05;;;;;;;2.89;72.67;99676.81;5020871;28;20053;-70
2022/03/25 01:40:51;;;;;;;30.17;11.15;;;;;;;2.93;72.21;99691.59;5025983;28;20475;-69
2022/03/25 01:43:16;;;;;;;24.55;13.00;;;;;;;2.79;72.76;99685.63;5023644;28;20036;-70
2022/03/25 01:45:41;;;;;;;27.88;13.27;;;;;;;2.93;73.46;99715.66;5026113;28;20067;-70
2022/03/25 01:48:09;;;;;;;24.60;12.98;;;;;;;2.64;74.05;99698.47;5024275;28;20040;-69
2022/03/25 01:50:35;;;;;;;26.90;13.32;;;;;;;2.51;75.05;99694.28;5024643;28;20056;-69
2022/03/25 01:53:01;;;;;;;29.60;12.10;;;;;;;2.49;75.34;99709.59;5027292;28;20029;-70
2022/03/25 01:55:27;;;;;;;26.13;12.93;;;;;;;2.34;76.00;99693.06;5022869;28;20060;-70
2022/03/25 01:57:57;;;;;;;25.05;12.50;;;;;;;2.35;75.63;99716.09;5024026;28;20029;-70
2022/03/25 02:00:23;;;;;;;26.73;12.48;;;;;;;2.25;76.45;99716.03;5025813;28;20369;-69
2022/03/25 02:02:49;;;;;;;31.50;13.93;;;;;;;2.14;76.50;99721.41;5026105;28;20033;-70
2022/03/25 02:05:15;;;;;;;26.20;12.30;;;;;;;2.12;77.50;99702.88;5021176;28;20032;-70
2022/03/25 02:07:41;;;;;;;27.70;13.32;;;;;;;2.34;76.68;99715.25;5018600;28;20021;-69
2022/03/25 02:10:07;;;;;;;25.80;12.88;;;;;;;2.36;75.99;99689.28;5023730;28;20029;-70
2022/03/25 02:12:34;;;;;;;26.33;12.25;;;;;;;2.38;75.71;99708.72;5022072;28;20064;-69
2022/03/25 02:14:59;;;;;;;27.17;12.20;;;;;;;2.38;75.29;99714.06;5021852;28;20116;-70
2022/03/25 02:17:25;;;;;;;35.78;13.07;;;;;;;2.24;76.25;99716.16;5022306;28;20112;-70
2022/03/25 02:19:50;;;;;;;26.98;12.20;;;;;;;1.96;75.47;99699.75;5023799;28;20121;-70
2022/03/25 02:22:15;;;;;;;26.20;12.45;;;;;;;1.92;75.44;99717.00;5027311;28;20112;-69
2022/03/25 02:24:41;;;;;;;23.83;13.10;;;;;;;1.86;75.31;99704.16;5025665;28;20060;-69
2022/03/25 02:27:08;;;;;;;22.27;11.95;;;;;;;1.73;75.83;99715.00;5024480;28;20060;-69
2022/03/25 02:29:34;;;;;;;28.58;12.27;;;;;;;1.47;75.94;99685.94;5026816;28;20056;-69
2022/03/25 02:31:59;;;;;;;25.08;12.10;;;;;;;1.54;76.87;99703.13;5025963;28;22563;-69
2022/03/25 02:34:24;;;;;;;28.10;12.45;;;;;;;1.45;77.40;99709.22;5023871;28;20503;-70
2022/03/25 02:36:50;;;;;;;26.10;13.68;;;;;;;1.33;77.13;99691.50;5023253;28;20037;-70
2022/03/25 02:39:17;;;;;;;22.85;12.40;;;;;;;1.34;76.94;99697.69;5022151;28;20896;-70
2022/03/25 02:41:43;;;;;;;22.60;11.98;;;;;;;1.38;77.61;99705.31;5025789;28;20032;-69
2022/03/25 02:44:10;;;;;;;25.00;11.90;;;;;;;1.03;78.29;99655.69;5025873;28;20052;-70
2022/03/25 02:46:36;;;;;;;31.92;13.13;;;;;;;1.61;78.62;99721.31;5023272;28;20380;-69
2022/03/25 02:49:02;;;;;;;31.52;13.38;;;;;;;1.67;77.86;99702.97;5022349;28;20087;-69
2022/03/25 02:51:27;;;;;;;27.45;12.73;;;;;;;1.67;77.64;99699.47;5026761;28;20542;-70
2022/03/25 02:53:53;;;;;;;24.77;12.02;;;;;;;1.70;77.72;99717.88;5022688;28;20783;-69
2022/03/25 02:56:18;;;;;;;29.20;12.93;;;;;;;1.60;78.03;99706.25;5025172;28;20119;-70
2022/03/25 02:58:44;;;;;;;28.30;13.68;;;;;;;1.58;78.03;99721.56;5024454;28;20487;-70
2022/03/25 03:01:09;;;;;;;25.48;12.32;;;;;;;1.52;79.07;99693.56;5023387;28;20040;-69
2022/03/25 03:03:35;;;;;;;26.95;13.02;;;;;;;1.59;79.04;99718.75;5014969;28;20029;-71
2022/03/25 03:06:01;;;;;;;23.35;12.65;;;;;;;1.42;79.26;99698.78;5023010;28;20171;-71
2022/03/25 03:08:27;;;;;;;31.80;13.65;;;;;;;1.45;79.20;99701.22;5017981;28;20034;-71
2022/03/25 03:10:53;;;;;;;24.63;12.93;;;;;;;1.02;78.83;99659.34;5024658;28;20025;-71
2022/03/25 03:13:19;;;;;;;29.33;12.55;;;;;;;1.10;79.53;99677.34;5023159;28;20027;-71
2022/03/25 03:15:44;;;;;;;29.25;13.32;;;;;;;1.38;79.69;99718.66;5022716;28;20436;-71
2022/03/25 03:18:10;;;;;;;26.52;13.43;;;;;;;1.05;79.63;99679.56;5022675;28;20037;-72
2022/03/25 03:20:35;;;;;;;25.45;12.50;;;;;;;1.29;79.54;99728.25;5023265;28;20057;-71
2022/03/25 03:23:00;;;;;;;29.40;13.25;;;;;;;1.28;80.19;99731.03;5029308;28;20080;-71
2022/03/25 03:25:26;;;;;;;27.08;12.63;;;;;;;1.14;80.19;99728.59;5033447;28;20037;-72
2022/03/25 03:27:52;;;;;;;27.35;13.32;;;;;;;1.03;79.80;99703.66;5028804;28;20037;-72
2022/03/25 03:30:18;;;;;;;29.33;13.30;;;;;;;1.06;80.60;99684.75;5026362;28;20037;-71
2022/03/25 03:32:43;;;;;;;31.33;13.52;;;;;;;1.34;80.45;99714.56;5025615;28;20105;-71
2022/03/25 03:35:09;;;;;;;31.02;14.85;;;;;;;1.19;81.00;99707.78;5026181;28;20060;-71
2022/03/25 03:37:42;;;;;;;24.23;14.02;;;;;;;1.29;81.71;99714.06;5043459;28;20033;-71
2022/03/25 03:40:10;;;;;;;29.25;14.20;;;;;;;1.09;81.84;99696.97;5042075;28;20052;-71
2022/03/25 03:42:36;;;;;;;27.95;13.57;;;;;;;1.19;81.93;99707.78;5029553;28;20438;-71
2022/03/25 03:45:03;;;;;;;30.50;13.63;;;;;;;1.00;82.23;99685.25;5031190;28;20055;-71
2022/03/25 03:47:28;;;;;;;28.92;13.63;;;;;;;1.08;81.51;99689.97;5029447;28;20036;-72
2022/03/25 03:49:53;;;;;;;26.60;14.02;;;;;;;1.22;81.63;99707.53;5027352;28;20037;-72
2022/03/25 03:52:19;;;;;;;31.80;13.55;;;;;;;1.07;82.00;99704.25;5030429;28;20018;-72
2022/03/25 03:54:45;;;;;;;29.67;13.98;;;;;;;0.89;82.62;99677.22;5037347;28;20083;-71
2022/03/25 03:57:10;;;;;;;27.02;13.88;;;;;;;0.94;83.35;99679.53;5036879;28;20033;-71
2022/03/25 03:59:36;;;;;;;37.97;14.90;;;;;;;1.04;82.69;99696.50;5037256;28;20025;-71
2022/03/25 04:02:03;;;;;;;31.88;14.77;;;;;;;1.00;82.21;99697.72;5032857;28;20491;-72
2022/03/25 04:04:28;;;;;;;31.27;14.38;;;;;;;0.85;82.34;99667.78;5026799;28;20056;-72
2022/03/25 04:06:53;;;;;;;29.23;14.57;;;;;;;0.96;81.74;99697.09;5028895;28;20483;-72
2022/03/25 04:09:19;;;;;;;32.72;15.10;;;;;;;0.68;82.68;99689.56;5024434;28;20033;-72
2022/03/25 04:11:44;;;;;;;31.38;14.15;;;;;;;0.70;82.43;99714.25;5028028;28;20041;-72
2022/03/25 04:14:09;;;;;;;30.92;14.00;;;;;;;0.58;83.27;99716.91;5026048;28;20044;-72
2022/03/25 04:16:35;;;;;;;29.17;14.48;;;;;;;0.42;83.84;99700.41;5027558;28;20036;-72
2022/03/25 04:19:01;;;;;;;28.00;15.32;;;;;;;0.19;84.09;99671.06;5028165;28;20052;-72
2022/03/25 04:21:26;;;;;;;31.92;14.38;;;;;;;0.39;84.59;99711.25;5025333;28;20788;-72
2022/03/25 04:23:52;;;;;;;29.00;14.43;;;;;;;0.17;85.01;99678.28;5032997;28;20112;-72
2022/03/25 04:26:17;;;;;;;28.15;13.77;;;;;;;0.56;84.81;99713.50;5030162;28;20048;-72
2022/03/25 04:28:42;;;;;;;28.92;14.80;;;;;;;0.44;84.71;99695.78;5024982;28;20120;-72
2022/03/25 04:31:07;;;;;;;30.58;14.82;;;;;;;0.49;84.70;99701.63;5028748;28;20025;-72
2022/03/25 04:33:34;;;;;;;27.58;13.85;;;;;;;0.31;85.16;99679.06;5025072;28;20061;-73
2022/03/25 04:36:00;;;;;;;35.28;15.43;;;;;;;0.46;84.56;99709.84;5031366;28;20144;-72
2022/03/25 04:38:26;;;;;;;30.33;14.80;;;;;;;0.46;84.83;99693.88;5028975;28;20030;-77
2022/03/25 04:40:51;;;;;;;29.23;14.38;;;;;;;0.68;84.74;99714.38;5026146;28;20032;-76
2022/03/25 04:43:16;;;;;;;30.40;13.55;;;;;;;0.48;83.11;99702.59;5026963;28;20029;-80
2022/03/25 04:45:42;;;;;;;28.73;13.18;;;;;;;0.40;83.38;99673.06;5027932;28;20037;-77
2022/03/25 04:48:08;;;;;;;24.95;12.48;;;;;;;0.28;82.86;99677.47;5031410;28;20036;-77
2022/03/25 04:50:33;;;;;;;27.50;14.00;;;;;;;0.30;83.64;99696.84;5029987;28;20057;-76
2022/03/25 04:52:59;;;;;;;24.33;13.50;;;;;;;0.32;85.19;99704.72;5030867;28;20037;-77
2022/03/25 04:55:24;;;;;;;30.63;13.85;;;;;;;0.13;85.24;99679.50;5033321;28;20952;-77
2022/03/25 04:57:50;;;;;;;32.17;14.82;;;;;;;0.25;85.36;99658.25;5032423;28;20037;-75
2022/03/25 05:00:16;;;;;;;32.05;14.20;;;;;;;0.59;85.39;99715.09;5028065;28;20104;-79
2022/03/25 05:02:42;;;;;;;25.98;13.13;;;;;;;0.67;85.76;99710.00;5030355;28;20056;-76
2022/03/25 05:05:08;;;;;;;26.50;13.40;;;;;;;0.55;85.05;99702.97;5034055;28;20056;-78
2022/03/25 05:07:34;;;;;;;29.25;13.50;;;;;;;0.49;85.00;99719.41;5033729;28;20114;-78
2022/03/25 05:10:00;;;;;;;26.50;13.13;;;;;;;0.42;84.25;99716.38;5030110;28;20029;-77
2022/03/25 05:12:26;;;;;;;36.72;13.73;;;;;;;0.59;85.23;99720.41;5035250;28;20033;-76
2022/03/25 05:14:52;;;;;;;26.45;13.30;;;;;;;0.35;85.46;99696.50;5044136;28;20021;-74
2022/03/25 05:17:17;;;;;;;26.05;13.18;;;;;;;0.44;84.92;99711.75;5046061;28;20036;-74
2022/03/25 05:19:42;;;;;;;28.83;13.80;;;;;;;0.29;85.40;99680.97;5053810;28;20099;-74
2022/03/25 05:22:08;;;;;;;28.40;13.10;;;;;;;0.49;85.24;99698.13;5053217;28;20026;-75
2022/03/25 05:24:33;;;;;;;27.20;13.90;;;;;;;0.65;85.07;99731.47;5046046;28;20040;-73
2022/03/25 05:26:59;;;;;;;32.42;13.68;;;;;;;0.58;83.83;99684.94;5052339;28;20481;-75
2022/03/25 05:29:26;;;;;;;30.35;14.07;;;;;;;0.69;83.92;99718.75;5044405;28;20021;-75
2022/03/25 05:31:51;;;;;;;33.03;13.65;;;;;;;0.67;84.03;99711.84;5048223;28;20033;-75
2022/03/25 05:34:17;;;;;;;29.15;14.02;;;;;;;0.67;82.71;99717.16;5050874;28;20029;-71
2022/03/25 05:36:42;;;;;;;36.35;14.13;;;;;;;0.71;83.16;99718.59;5041289;28;20037;-74
2022/03/25 05:39:08;;;;;;;27.80;14.05;;;;;;;0.86;83.38;99717.44;5044181;28;20037;-73
2022/03/25 05:41:34;;;;;;;32.22;13.90;;;;;;;0.81;82.65;99708.94;5067210;28;20059;-74
2022/03/25 05:43:59;;;;;;;32.17;15.07;;;;;;;1.06;82.47;99730.06;5042774;28;20084;-73
2022/03/25 05:46:26;;;;;;;32.05;14.32;;;;;;;1.18;81.14;99714.06;5028770;28;20037;-77
2022/03/25 05:48:51;;;;;;;26.13;13.38;;;;;;;2.18;76.77;99730.88;5033387;28;20028;-80
2022/03/25 05:51:16;;;;;;;27.50;13.30;;;;;;;3.38;71.99;99734.03;5027449;28;20037;-81
2022/03/25 05:53:42;;;;;;;24.58;12.40;;;;;;;4.04;65.59;99686.19;5026045;28;20109;-75
2022/03/25 05:56:09;;;;;;;27.80;12.95;;;;;;;5.25;61.92;99735.69;5028190;28;20022;-76
2022/03/25 05:58:35;;;;;;;24.45;12.38;;;;;;;5.79;59.95;99736.72;5023930;28;20056;-70
2022/03/25 06:01:02;;;;;;;26.55;13.05;;;;;;;6.27;57.57;99732.06;5022593;28;20452;-70
2022/03/25 06:03:28;;;;;;;27.73;12.73;;;;;;;6.76;55.22;99748.63;5024347;28;20029;-70
2022/03/25 06:05:53;;;;;;;24.23;12.73;;;;;;;6.80;54.29;99740.09;5024769;28;20044;-70
2022/03/25 06:08:19;;;;;;;25.88;12.60;;;;;;;7.07;53.55;99748.19;5027723;28;20057;-71
2022/03/25 06:10:44;;;;;;;26.90;13.32;;;;;;;6.96;53.89;99751.97;5024089;28;20497;-69
2022/03/25 06:13:09;;;;;;;27.30;14.07;;;;;;;7.54;52.94;99755.88;5023074;28;20017;-70
2022/03/25 06:15:35;;;;;;;30.23;13.20;;;;;;;8.13;52.54;99749.53;5021182;28;20037;-69
2022/03/25 06:18:00;;;;;;;29.73;14.18;;;;;;;8.41;51.18;99756.53;5023731;28;20052;-69
2022/03/25 06:20:28;;;;;;;26.10;14.18;;;;;;;9.11;49.44;99751.50;5023015;28;20033;-67
2022/03/25 06:22:53;;;;;;;28.33;13.98;;;;;;;9.71;49.21;99752.03;5025054;28;20172;-68
2022/03/25 06:25:19;;;;;;;25.65;13.90;;;;;;;10.28;47.80;99744.53;5021429;28;20035;-69
2022/03/25 06:27:54;;;;;;;28.58;14.13;;;;;;;10.60;46.89;99748.03;5022056;28;20029;-69
2022/03/25 06:30:21;;;;;;;29.05;15.63;;;;;;;10.78;45.13;99746.88;5019167;28;20423;-68
2022/03/25 06:32:47;;;;;;;27.80;13.70;;;;;;;11.66;43.88;99751.63;5021725;28;20053;-68
2022/03/25 06:35:14;;;;;;;27.35;14.00;;;;;;;11.29;43.71;99723.56;5020378;28;20076;-67
2022/03/25 06:37:40;;;;;;;30.17;13.70;;;;;;;12.06;42.35;99738.59;5020590;28;20078;-67
2022/03/25 06:40:07;;;;;;;28.67;14.95;;;;;;;13.46;40.49;99710.03;5021694;28;20513;-67
2022/03/25 06:42:35;;;;;;;25.85;14.48;;;;;;;13.28;39.88;99746.75;5020242;28;20524;-67
2022/03/25 06:45:02;;;;;;;24.52;13.80;;;;;;;14.00;38.90;99736.47;5015212;28;20029;-67
2022/03/25 06:47:28;;;;;;;31.73;14.65;;;;;;;15.01;36.96;99747.44;5009298;28;20026;-67
2022/03/25 06:49:54;;;;;;;23.75;15.10;;;;;;;14.96;36.60;99725.44;5013026;28;20033;-67
2022/03/25 06:52:20;;;;;;;27.23;14.73;;;;;;;15.57;35.88;99746.13;5013505;28;20022;-66
2022/03/25 06:54:45;;;;;;;25.15;14.40;;;;;;;15.84;35.92;99752.38;5024542;28;20035;-71
2022/03/25 06:57:11;;;;;;;26.65;14.05;;;;;;;15.82;35.92;99737.28;5023759;28;20033;-74
2022/03/25 06:59:37;;;;;;;24.05;14.95;;;;;;;16.20;34.75;99743.66;5018929;28;20033;-73
2022/03/25 07:02:02;;;;;;;23.10;15.35;;;;;;;16.20;34.36;99746.38;5019302;28;21803;-74
2022/03/25 07:04:28;;;;;;;27.48;14.40;;;;;;;16.77;33.89;99762.91;5021078;28;20041;-71
2022/03/25 07:06:56;;;;;;;22.67;14.40;;;;;;;16.87;33.24;99735.06;5013851;28;20029;-76
2022/03/25 07:09:21;;;;;;;27.80;15.32;;;;;;;17.45;32.33;99748.50;5028620;28;20021;-77
2022/03/25 07:11:47;;;;;;;26.23;15.07;;;;;;;17.86;30.96;99751.66;5030788;28;20030;-75
2022/03/25 07:14:12;;;;;;;24.20;14.93;;;;;;;17.97;30.62;99756.38;5031669;28;20030;-79
2022/03/25 07:16:42;;;;;;;25.05;15.63;;;;;;;17.67;31.03;99713.31;5033351;28;20029;-77
2022/03/25 07:19:07;;;;;;;;;;;;;;;17.44;31.94;99767.84;5031748;28;20022;-73
2022/03/25 07:21:32;;;;;;;31.02;16.00;;;;;;;18.28;30.20;99724.41;5020363;28;20398;-73
2022/03/25 07:23:58;;;;;;;29.13;17.08;;;;;;;17.25;31.60;99748.66;5028626;28;20026;-72
2022/03/25 07:26:23;;;;;;;22.45;15.35;;;;;;;18.13;30.54;99739.34;5023555;28;20025;-72
2022/03/25 07:28:48;;;;;;;26.35;16.25;;;;;;;18.90;29.56;99763.41;5030428;28;20029;-73
2022/03/25 07:31:13;;;;;;;24.77;15.85;;;;;;;19.47;29.04;99754.66;5026544;28;20159;-74
2022/03/25 07:33:39;;;;;;;23.98;14.95;;;;;;;19.69;28.84;99736.53;5029412;28;20025;-71
2022/03/25 07:36:04;;;;;;;25.27;15.70;;;;;;;19.28;29.61;99764.88;5030702;28;20029;-68
2022/03/25 07:38:30;;;;;;;27.60;16.50;;;;;;;19.08;29.29;99765.22;5026840;28;20083;-68
2022/03/25 07:40:55;;;;;;;27.38;16.25;;;;;;;19.82;28.92;99775.81;5018783;28;20034;-74
2022/03/25 07:43:22;;;;;;;21.88;14.73;;;;;;;20.88;27.66;99765.34;5023008;28;20183;-73
2022/03/25 07:45:48;;;;;;;29.05;15.82;;;;;;;21.59;25.72;99762.16;5038674;28;20072;-74
2022/03/25 07:48:14;;;;;;;26.35;15.90;;;;;;;22.06;25.15;99751.53;5026800;28;20384;-75
2022/03/25 07:50:39;;;;;;;26.95;17.58;;;;;;;21.72;25.54;99770.06;5026622;28;20022;-75
2022/03/25 07:53:05;;;;;;;24.08;16.70;;;;;;;21.81;25.43;99764.94;5027712;28;20029;-75
2022/03/25 07:55:30;;;;;;;30.65;17.63;;;;;;;22.27;25.52;99751.81;5026936;28;20032;-69
2022/03/25 07:57:57;;;;;;;26.08;17.73;;;;;;;22.18;24.95;99747.81;5030267;28;20037;-72
2022/03/25 08:00:23;;;;;;;26.55;17.25;;;;;;;21.93;25.50;99751.03;5029992;28;20022;-72
2022/03/25 08:02:53;;;;;;;29.20;18.02;;;;;;;20.91;26.59;99770.38;5030953;28;20053;-71
2022/03/25 08:05:18;;;;;;;;;;;;;;;21.27;26.04;99772.88;5026826;28;20028;-71
2022/03/25 08:07:49;;;;;;;26.77;16.13;;;;;;;22.02;25.84;99771.56;5039200;28;19917;-69
2022/03/25 08:10:29;;;;;;;30.25;16.08;;;;;;;23.27;24.22;99757.81;5025270;28;20041;-73
2022/03/25 08:12:56;;;;;;;26.80;16.92;;;;;;;23.55;24.41;99769.63;5022260;28;20091;-69
2022/03/25 08:15:23;;;;;;;29.98;16.75;;;;;;;22.24;24.19;99771.59;5025074;28;20029;-73
2022/03/25 08:17:57;;;;;;;27.27;17.48;;;;;;;22.92;23.84;99778.47;5027294;28;20036;-74
2022/03/25 08:20:25;;;;;;;26.65;16.25;;;;;;;24.43;22.83;99783.69;5029877;28;20162;-77
2022/03/25 08:22:51;;;;;;;27.35;16.30;;;;;;;23.80;22.68;99778.13;5048292;28;20052;-67
2022/03/25 08:28:01;;;;;;;23.25;16.58;;;;;;;24.94;21.17;99774.72;5026312;28;20033;-65
2022/03/25 08:30:33;;;;;;;22.23;16.73;;;;;;;25.38;20.43;99774.22;5027397;28;20041;-73
2022/03/25 08:33:02;;;;;;;24.27;16.83;;;;;;;24.92;20.17;99763.09;5029679;28;20580;-74
2022/03/25 08:35:28;;;;;;;24.85;17.33;;;;;;;24.22;21.58;99779.19;5032125;28;20022;-73
2022/03/25 08:37:55;;;;;;;22.83;16.83;;;;;;;25.34;20.49;99779.50;5030493;28;20029;-73
2022/03/25 08:40:23;;;;;;;25.08;18.27;;;;;;;25.41;20.85;99776.44;5030771;28;20021;-74
2022/03/25 08:42:48;;;;;;;26.60;18.40;;;;;;;25.82;20.20;99772.78;5032700;28;20034;-76
2022/03/25 08:45:16;;;;;;;27.15;18.17;;;;;;;25.72;19.94;99760.59;5031868;28;20030;-76
2022/03/25 08:47:43;;;;;;;30.42;19.48;;;;;;;24.30;20.67;99762.06;5032272;28;20029;-75
2022/03/25 08:50:12;;;;;;;26.58;18.13;;;;;;;24.61;21.29;99765.78;5028987;28;20056;-72
2022/03/25 08:52:41;;;;;;;24.65;17.88;;;;;;;24.71;21.68;99760.28;5027868;28;20025;-72
2022/03/25 08:55:08;;;;;;;;;;;;;;;26.60;20.33;99769.53;5029159;28;20021;-72
2022/03/25 08:57:33;;;;;;;28.27;18.73;;;;;;;26.37;20.00;99757.94;5033455;28;21886;-74
2022/03/25 08:59:58;;;;;;;25.98;18.63;;;;;;;26.39;20.17;99744.63;5028814;28;20024;-75
2022/03/25 09:02:24;;;;;;;25.60;18.45;;;;;;;25.47;20.13;99736.56;5026827;28;20026;-67
2022/03/25 09:04:49;;;;;;;26.55;18.60;;;;;;;26.44;20.21;99755.69;5022926;28;20044;-67
2022/03/25 09:07:15;;;;;;;26.77;18.25;;;;;;;24.68;21.72;99746.16;5026435;28;20052;-73
2022/03/25 09:09:40;;;;;;;27.02;18.15;;;;;;;25.11;21.54;99767.00;5023461;28;20691;-72
2022/03/25 09:12:07;;;;;;;30.63;18.63;;;;;;;25.62;21.24;99762.56;5029179;28;20036;-72
2022/03/25 09:14:33;;;;;;;25.88;18.48;;;;;;;26.02;21.52;99751.41;5032578;28;20501;-73
2022/03/25 09:16:59;;;;;;;29.00;18.83;;;;;;;26.47;21.08;99759.84;5024337;28;20029;-72
2022/03/25 09:19:24;;;;;;;23.17;17.75;;;;;;;27.03;20.78;99758.69;5027167;28;20108;-71
2022/03/25 09:21:49;;;;;;;25.23;18.80;;;;;;;27.67;19.55;99760.38;5030514;28;20092;-72
2022/03/25 09:24:16;;;;;;;25.40;18.60;;;;;;;28.10;19.31;99759.69;5029536;28;20049;-73
2022/03/25 09:26:41;;;;;;;24.42;17.65;;;;;;;28.02;19.36;99750.03;5029374;28;20025;-74
2022/03/25 09:29:08;;;;;;;23.88;17.67;;;;;;;28.05;19.49;99755.00;5030852;28;20501;-77
2022/03/25 09:31:34;;;;;;;26.75;18.10;;;;;;;27.41;19.29;99758.97;5028350;28;20030;-75
2022/03/25 09:36:43;;;;;;;26.33;19.23;;;;;;;24.19;22.39;99763.97;5035616;28;20121;-75
2022/03/25 09:39:09;;;;;;;28.90;19.02;;;;;;;25.48;21.62;99760.38;5034787;28;20045;-69
2022/03/25 09:41:35;;;;;;;24.85;18.00;;;;;;;27.14;20.57;99751.91;5029073;28;20052;-77
2022/03/25 09:44:02;;;;;;;22.65;17.10;;;;;;;28.09;19.03;99749.69;5025251;28;20029;-74
2022/03/25 09:46:27;;;;;;;23.92;18.73;;;;;;;27.48;20.37;99754.75;5027063;28;20410;-75
2022/03/25 09:48:52;;;;;;;28.02;19.17;;;;;;;27.92;19.69;99766.84;5026999;28;20103;-72
2022/03/25 09:51:18;;;;;;;25.23;19.17;;;;;;;26.70;20.32;99758.38;5024491;28;20030;-71
2022/03/25 09:53:44;;;;;;;25.35;18.85;;;;;;;28.07;19.44;99763.88;5027691;28;20036;-66
2022/03/25 09:56:10;;;;;;;24.48;18.17;;;;;;;28.79;19.71;99754.59;5026536;28;20483;-75
2022/03/25 09:58:35;;;;;;;27.63;18.50;;;;;;;29.02;19.42;99728.63;5036056;28;20037;-73
2022/03/25 10:01:01;;;;;;;25.63;19.83;;;;;;;29.12;18.88;99749.13;5039916;28;20029;-74
2022/03/25 10:03:37;;;;;;;26.65;19.52;;;;;;;28.72;19.30;99751.41;5024527;28;20111;-67
2022/03/25 10:06:09;;;;;;;27.00;18.10;;;;;;;29.16;18.39;99745.44;5029462;28;20025;-74
2022/03/25 10:08:35;;;;;;;25.67;19.10;;;;;;;29.81;19.15;99750.16;5023319;28;20139;-65
2022/03/25 10:11:22;;;;;;;25.15;17.75;;;;;;;29.26;19.55;99755.56;5028356;28;20215;-66
2022/03/25 10:13:49;;;;;;;29.25;19.27;;;;;;;26.60;20.14;99736.22;5046344;28;20020;-72
2022/03/25 10:16:25;;;;;;;25.17;19.20;;;;;;;28.23;21.37;99741.44;5043390;28;20029;-73
2022/03/25 10:18:54;;;;;;;25.25;18.10;;;;;;;29.58;19.17;99742.75;5030998;28;20044;-66
2022/03/25 10:21:20;;;;;;;29.70;19.13;;;;;;;28.24;19.69;99746.69;5052045;28;20021;-65
2022/03/25 10:23:46;;;;;;;26.75;19.77;;;;;;;27.63;19.71;99737.06;5041250;28;20025;-73
2022/03/25 10:26:11;;;;;;;31.00;19.83;;;;;;;29.29;18.96;99738.22;5049578;22;20042;-70
2022/03/25 10:28:42;;;;;;;28.02;20.63;;;;;;;27.99;18.99;99739.50;5027620;28;20041;-71
2022/03/25 10:31:24;;;;;;;24.45;17.65;;;;;;;28.77;19.24;99731.81;5022889;28;20025;-74
2022/03/25 10:33:54;;;;;;;23.98;18.92;;;;;;;29.24;19.31;99741.13;5024955;28;20033;-70
2022/03/25 10:36:22;;;;;;;27.70;19.80;;;;;;;28.87;18.17;99726.06;5021349;28;20047;-70
2022/03/25 10:38:49;;;;;;;28.05;21.23;;;;;;;26.94;20.12;99747.38;5021546;28;20491;-66
2022/03/25 10:41:18;;;;;;;28.23;19.67;;;;;;;28.12;19.21;99737.97;5025297;28;20502;-65
2022/03/25 10:44:03;;;;;;;26.48;19.05;;;;;;;26.71;22.09;99734.19;5025805;28;20171;-66
2022/03/25 10:46:43;;;;;;;26.10;19.67;;;;;;;28.12;20.09;99735.19;5025116;28;20037;-66
2022/03/25 10:49:11;;;;;;;32.50;19.50;;;;;;;29.34;18.94;99728.97;5025000;28;20080;-66
2022/03/25 10:51:41;;;;;;;28.38;20.33;;;;;;;29.13;20.14;99723.72;5026186;28;20108;-66
2022/03/25 10:54:11;;;;;;;27.00;20.65;;;;;;;28.91;19.69;99724.34;5022717;28;20040;-67
2022/03/25 10:56:57;;;;;;;27.25;19.10;;;;;;;29.68;19.07;99720.28;5024258;28;20024;-67
2022/03/25 10:59:30;;;;;;;23.88;18.67;;;;;;;29.53;20.30;99721.38;5025122;28;20072;-67
2022/03/25 11:01:58;;;;;;;20.55;17.02;;;;;;;30.45;20.40;99718.75;5023054;28;20147;-67
2022/03/25 11:04:25;;;;;;;24.40;18.25;;;;;;;31.03;18.93;99715.19;5028429;28;20037;-67
2022/03/25 11:06:51;;;;;;;31.20;19.73;;;;;;;30.01;17.64;99723.00;5025709;28;20106;-66
2022/03/25 11:09:17;;;;;;;25.25;16.77;;;;;;;29.81;18.56;99702.72;5022589;28;20643;-66
2022/03/25 11:11:45;;;;;;;26.55;19.73;;;;;;;29.16;20.35;99705.56;5020193;28;20502;-66
2022/03/25 11:14:11;;;;;;;30.98;20.48;;;;;;;29.30;18.48;99709.25;5020423;28;20081;-67
2022/03/25 11:16:48;;;;;;;27.38;21.08;;;;;;;29.44;18.30;99701.72;5020578;28;20468;-66
2022/03/25 11:19:14;;;;;;;25.45;19.30;;;;;;;30.38;18.44;99696.00;5026320;28;20116;-66
2022/03/25 11:21:42;;;;;;;27.95;20.70;;;;;;;29.90;17.94;99692.50;5026852;28;20440;-66
2022/03/25 11:24:39;;;;;;;28.23;21.23;;;;;;;28.09;19.90;99708.78;5021215;28;20033;-67